createdAt,value
2019-02-18T00:02:11.076Z,44.40
2019-02-18T00:04:41.458Z,44.02
2019-02-18T00:07:14.598Z,45.63
2019-02-18T00:09:43.708Z,44.33
2019-02-18T00:12:14.038Z,45.85
2019-02-18T00:14:44.346Z,46.37
2019-02-18T00:17:14.659Z,45.14
2019-02-18T00:19:44.885Z,45.26
2019-02-18T00:22:15.187Z,44.68
2019-02-18T00:24:45.486Z,50.70
2019-02-18T00:27:15.810Z,45.97
2019-02-18T00:29:46.148Z,45.13
2019-02-18T00:32:16.442Z,45.84
2019-02-18T00:34:46.672Z,46.22
2019-02-18T00:37:24.185Z,47.23
2019-02-18T00:39:49.042Z,46.21
2019-02-18T00:42:19.344Z,46.68
2019-02-18T00:44:49.587Z,47.10
2019-02-18T00:47:19.872Z,46.94
2019-02-18T00:49:50.322Z,45.17
2019-02-18T00:52:20.588Z,44.78
2019-02-18T00:54:50.834Z,44.98
2019-02-18T00:57:21.115Z,45.01
2019-02-18T00:59:51.466Z,49.24
2019-02-18T01:02:21.753Z,50.41
2019-02-18T01:04:52.301Z,52.10
2019-02-18T01:07:22.602Z,54.11
2019-02-18T01:09:52.955Z,55.18
2019-02-18T01:12:23.432Z,55.74
2019-02-18T01:14:53.695Z,54.98
2019-02-18T01:17:24.000Z,53.94
2019-02-18T01:19:54.331Z,52.91
2019-02-18T01:22:24.606Z,50.61
2019-02-18T01:24:54.846Z,50.04
2019-02-18T01:27:25.143Z,50.36
2019-02-18T01:29:55.495Z,49.02
2019-02-18T01:32:25.795Z,48.71
2019-02-18T01:34:56.050Z,48.79
2019-02-18T01:37:26.363Z,48.95
2019-02-18T01:39:56.763Z,49.78
2019-02-18T01:42:27.031Z,48.99
2019-02-18T01:44:57.321Z,52.85
2019-02-18T01:47:27.602Z,48.83
2019-02-18T01:49:58.347Z,48.10
2019-02-18T01:52:28.733Z,48.78
2019-02-18T01:54:59.077Z,54.22
2019-02-18T01:57:29.578Z,53.07
2019-02-18T01:59:59.810Z,51.26
2019-02-18T02:02:30.106Z,48.91
2019-02-18T02:05:00.435Z,56.94
2019-02-18T02:07:30.738Z,49.21
2019-02-18T02:10:01.008Z,49.19
2019-02-18T02:12:31.326Z,49.64
2019-02-18T02:15:01.696Z,51.11
2019-02-18T02:17:32.037Z,49.03
2019-02-18T02:20:02.280Z,50.76
2019-02-18T02:22:32.558Z,49.78
2019-02-18T02:25:02.917Z,49.71
2019-02-18T02:27:33.233Z,48.73
2019-02-18T02:30:03.676Z,49.26
2019-02-18T02:32:34.005Z,48.93
2019-02-18T02:35:04.308Z,49.34
2019-02-18T02:37:34.606Z,48.29
2019-02-18T02:40:05.365Z,48.10
2019-02-18T02:42:35.667Z,49.27
2019-02-18T02:45:06.144Z,49.25
2019-02-18T02:47:36.436Z,47.67
2019-02-18T02:50:06.797Z,47.72
2019-02-18T02:52:37.167Z,47.39
2019-02-18T02:55:07.430Z,47.49
2019-02-18T02:57:37.699Z,47.99
2019-02-18T03:00:09.459Z,48.11
2019-02-18T03:02:39.758Z,50.23
2019-02-18T03:05:10.170Z,49.34
2019-02-18T03:07:40.456Z,48.85
2019-02-18T03:10:11.014Z,48.74
2019-02-18T03:12:41.306Z,48.93
2019-02-18T03:15:11.653Z,48.86
2019-02-18T03:17:41.910Z,49.18
2019-02-18T03:20:13.563Z,49.45
2019-02-18T03:22:43.858Z,48.52
2019-02-18T03:25:22.252Z,48.42
2019-02-18T03:27:55.930Z,49.23
2019-02-18T03:30:59.740Z,49.08
2019-02-18T03:33:52.401Z,47.98
2019-02-18T03:36:22.735Z,49.28
2019-02-18T03:38:53.079Z,49.90
2019-02-18T03:41:23.329Z,50.46
2019-02-18T03:43:53.618Z,50.41
2019-02-18T03:46:23.901Z,50.74
2019-02-18T03:48:54.190Z,50.75
2019-02-18T03:51:24.892Z,51.16
2019-02-18T03:53:55.615Z,50.96
2019-02-18T03:56:25.884Z,51.07
2019-02-18T03:58:56.392Z,51.04
2019-02-18T04:01:26.731Z,51.17
2019-02-18T04:03:57.017Z,51.47
2019-02-18T04:06:27.253Z,51.84
2019-02-18T04:08:57.618Z,51.96
2019-02-18T04:11:27.981Z,51.36
2019-02-18T04:13:58.317Z,51.76
2019-02-18T04:16:28.555Z,51.82
2019-02-18T04:18:58.858Z,51.62
2019-02-18T04:21:29.198Z,52.11
2019-02-18T04:23:59.553Z,52.14
2019-02-18T04:26:29.840Z,51.82
2019-02-18T04:29:00.104Z,51.87
2019-02-18T04:31:30.352Z,52.11
2019-02-18T04:34:00.660Z,52.34
2019-02-18T04:36:31.004Z,54.77
2019-02-18T04:39:01.302Z,53.52
2019-02-18T04:41:31.539Z,54.13
2019-02-18T04:44:01.830Z,53.39
2019-02-18T04:46:32.180Z,53.35
2019-02-18T04:49:02.439Z,53.36
2019-02-18T04:51:32.769Z,53.00
2019-02-18T04:54:03.222Z,53.57
2019-02-18T04:56:33.575Z,52.10
2019-02-18T04:59:03.968Z,52.56
2019-02-18T05:01:34.242Z,53.27
2019-02-18T05:04:04.498Z,53.37
2019-02-18T05:06:34.794Z,53.74
2019-02-18T05:09:06.013Z,53.40
2019-02-18T05:11:36.405Z,53.49
2019-02-18T05:14:06.691Z,53.56
2019-02-18T05:16:36.927Z,53.80
2019-02-18T05:19:07.314Z,54.16
2019-02-18T05:21:37.673Z,53.77
2019-02-18T05:24:07.966Z,53.95
2019-02-18T05:26:38.213Z,54.27
2019-02-18T05:29:08.513Z,54.48
2019-02-18T05:31:38.871Z,54.34
2019-02-18T05:34:09.147Z,52.97
2019-02-18T05:36:39.460Z,53.10
2019-02-18T05:39:17.926Z,52.94
2019-02-18T05:41:42.257Z,52.96
2019-02-18T05:44:12.571Z,53.54
2019-02-18T05:46:42.877Z,53.20
2019-02-18T05:49:13.155Z,53.60
2019-02-18T05:51:43.393Z,53.16
2019-02-18T05:54:13.872Z,53.60
2019-02-18T05:56:44.333Z,54.01
2019-02-18T05:59:14.762Z,52.70
2019-02-18T06:01:45.162Z,53.47
2019-02-18T06:04:15.474Z,52.13
2019-02-18T06:06:45.837Z,50.79
2019-02-18T06:09:16.143Z,50.94
2019-02-18T06:11:46.386Z,49.85
2019-02-18T06:14:16.670Z,48.62
2019-02-18T06:16:47.005Z,48.18
2019-02-18T06:19:17.301Z,47.75
2019-02-18T06:21:47.619Z,47.67
2019-02-18T06:24:17.955Z,46.86
2019-02-18T06:26:48.289Z,46.91
2019-02-18T06:29:18.582Z,47.04
2019-02-18T06:31:48.828Z,45.57
2019-02-18T06:34:19.118Z,45.16
2019-02-18T06:36:49.460Z,43.97
2019-02-18T06:39:19.767Z,43.29
2019-02-18T06:41:49.978Z,43.57
2019-02-18T06:44:24.639Z,42.95
2019-02-18T06:47:00.084Z,43.09
2019-02-18T06:49:31.116Z,42.83
2019-02-18T06:52:01.381Z,42.01
2019-02-18T06:54:31.783Z,41.25
2019-02-18T06:57:22.570Z,40.28
2019-02-18T06:59:55.564Z,39.96
2019-02-18T07:02:32.388Z,39.98
2019-02-18T07:05:13.942Z,39.49
2019-02-18T07:08:01.802Z,38.64
2019-02-18T07:10:38.641Z,38.46
2019-02-18T07:13:09.017Z,38.24
2019-02-18T07:15:39.317Z,37.65
2019-02-18T07:18:09.580Z,37.22
2019-02-18T07:20:39.891Z,36.31
2019-02-18T07:23:10.258Z,36.64
2019-02-18T07:25:40.564Z,34.81
2019-02-18T07:28:10.881Z,34.59
2019-02-18T07:30:41.191Z,33.22
2019-02-18T07:33:11.651Z,33.51
2019-02-18T07:35:42.656Z,34.24
2019-02-18T07:38:12.987Z,33.40
2019-02-18T07:40:43.321Z,33.10
2019-02-18T07:43:13.726Z,33.86
2019-02-18T07:45:44.037Z,33.47
2019-02-18T07:48:14.368Z,32.09
2019-02-18T07:50:44.671Z,32.41
2019-02-18T07:53:15.185Z,33.10
2019-02-18T07:55:45.658Z,32.36
2019-02-18T07:58:16.123Z,31.55
2019-02-18T08:00:46.576Z,31.37
2019-02-18T08:03:16.818Z,31.02
2019-02-18T08:05:47.150Z,31.05
2019-02-18T08:08:17.526Z,30.65
2019-02-18T08:10:47.830Z,30.55
2019-02-18T08:13:18.052Z,29.63
2019-02-18T08:15:48.358Z,28.17
2019-02-18T08:18:18.689Z,28.13
2019-02-18T08:20:48.973Z,27.86
2019-02-18T08:23:19.271Z,26.09
2019-02-18T08:25:49.677Z,26.73
2019-02-18T08:28:20.000Z,25.37
2019-02-18T08:30:50.345Z,26.18
2019-02-18T08:33:20.676Z,25.91
2019-02-18T08:35:51.012Z,24.03
2019-02-18T08:38:21.251Z,22.91
2019-02-18T08:40:51.533Z,23.31
2019-02-18T08:43:21.873Z,24.08
2019-02-18T08:45:52.166Z,21.93
2019-02-18T08:48:24.072Z,22.68
2019-02-18T08:50:54.582Z,21.71
2019-02-18T08:53:24.942Z,23.76
2019-02-18T08:55:55.309Z,23.54
2019-02-18T08:58:25.657Z,22.92
2019-02-18T09:01:02.613Z,22.88
2019-02-18T09:03:27.997Z,23.01
2019-02-18T09:05:58.272Z,22.76
2019-02-18T09:08:28.645Z,22.70
2019-02-18T09:10:58.951Z,21.39
2019-02-18T09:13:29.188Z,21.43
2019-02-18T09:16:00.478Z,22.34
2019-02-18T09:18:30.993Z,21.37
2019-02-18T09:21:01.270Z,21.31
2019-02-18T09:23:42.524Z,20.79
2019-02-18T09:26:15.663Z,21.13
2019-02-18T09:28:46.004Z,20.51
2019-02-18T09:31:17.931Z,20.62
2019-02-18T09:33:48.166Z,19.86
2019-02-18T09:36:18.472Z,19.79
2019-02-18T09:38:48.822Z,19.91
2019-02-18T09:41:19.120Z,19.92
2019-02-18T09:43:49.343Z,19.57
2019-02-18T09:46:19.646Z,19.31
2019-02-18T09:48:49.920Z,19.26
2019-02-18T09:51:20.245Z,18.66
2019-02-18T09:53:50.606Z,18.52
2019-02-18T09:56:21.387Z,18.94
2019-02-18T09:58:51.803Z,18.02
2019-02-18T10:01:22.755Z,18.33
2019-02-18T10:03:55.431Z,18.29
2019-02-18T10:06:25.700Z,18.01
2019-02-18T10:08:55.954Z,16.95
2019-02-18T10:11:26.294Z,17.28
2019-02-18T10:13:56.663Z,16.85
2019-02-18T10:16:26.972Z,17.44
2019-02-18T10:18:57.222Z,17.40
2019-02-18T10:21:27.535Z,16.35
2019-02-18T10:23:57.970Z,16.05
2019-02-18T10:26:28.257Z,16.45
2019-02-18T10:28:58.555Z,17.23
2019-02-18T10:31:28.859Z,16.76
2019-02-18T10:33:59.100Z,16.14
2019-02-18T10:36:29.392Z,16.26
2019-02-18T10:38:59.729Z,14.04
2019-02-18T10:41:30.146Z,15.76
2019-02-18T10:44:00.383Z,13.88
2019-02-18T10:46:30.699Z,14.38
2019-02-18T10:49:01.065Z,14.24
2019-02-18T10:51:31.354Z,13.87
2019-02-18T10:54:01.677Z,15.10
2019-02-18T10:56:32.340Z,14.68
2019-02-18T10:59:02.785Z,13.88
2019-02-18T11:01:33.132Z,14.45
2019-02-18T11:04:03.471Z,12.87
2019-02-18T11:06:33.762Z,12.89
2019-02-18T11:09:06.020Z,13.25
2019-02-18T11:11:36.300Z,12.95
2019-02-18T11:14:07.191Z,13.83
2019-02-18T11:16:38.358Z,13.15
2019-02-18T11:19:08.870Z,12.91
2019-02-18T11:21:39.379Z,13.95
2019-02-18T11:24:10.483Z,13.75
2019-02-18T11:26:41.466Z,13.39
2019-02-18T11:29:12.324Z,13.27
2019-02-18T11:31:43.101Z,13.58
2019-02-18T11:34:13.660Z,13.81
2019-02-18T11:36:44.617Z,13.16
2019-02-18T11:39:15.769Z,12.67
2019-02-18T11:41:47.045Z,13.74
2019-02-18T11:44:17.382Z,13.77
2019-02-18T11:46:47.742Z,13.74
2019-02-18T11:49:17.984Z,13.88
2019-02-18T11:51:48.273Z,14.30
2019-02-18T11:54:19.138Z,13.20
2019-02-18T11:56:49.751Z,13.48
2019-02-18T11:59:24.248Z,12.56
2019-02-18T12:01:52.365Z,13.73
2019-02-18T12:04:22.886Z,12.51
2019-02-18T12:06:53.599Z,13.02
2019-02-18T12:09:23.837Z,12.81
2019-02-18T12:11:54.138Z,12.96
2019-02-18T12:14:24.484Z,13.45
2019-02-18T12:16:54.897Z,13.74
2019-02-18T12:19:25.547Z,13.74
2019-02-18T12:21:56.668Z,14.15
2019-02-18T12:24:28.186Z,14.53
2019-02-18T12:26:59.897Z,14.17
2019-02-18T12:29:31.018Z,14.95
2019-02-18T12:32:21.403Z,14.70
2019-02-18T12:34:51.870Z,14.52
2019-02-18T12:37:22.265Z,13.73
2019-02-18T12:39:53.527Z,14.17
2019-02-18T12:42:23.833Z,14.42
2019-02-18T12:44:54.748Z,14.91
2019-02-18T12:47:25.096Z,13.61
2019-02-18T12:49:55.894Z,13.19
2019-02-18T12:52:26.340Z,11.86
2019-02-18T12:54:56.707Z,12.37
2019-02-18T12:57:27.194Z,12.84
2019-02-18T12:59:58.036Z,13.34
2019-02-18T13:02:28.383Z,13.61
2019-02-18T13:04:58.633Z,13.70
2019-02-18T13:07:28.975Z,13.43
2019-02-18T13:09:59.231Z,13.23
2019-02-18T13:12:29.646Z,13.52
2019-02-18T13:15:00.100Z,14.10
2019-02-18T13:17:30.626Z,14.41
2019-02-18T13:20:00.872Z,14.34
2019-02-18T13:22:31.403Z,13.98
2019-02-18T13:25:01.743Z,14.14
2019-02-18T13:27:31.994Z,14.92
2019-02-18T13:30:02.240Z,14.64
2019-02-18T13:32:32.635Z,14.59
2019-02-18T13:35:03.291Z,14.25
2019-02-18T13:37:34.003Z,14.06
2019-02-18T13:40:04.519Z,14.02
2019-02-18T13:42:34.940Z,14.53
2019-02-18T13:45:05.775Z,15.58
2019-02-18T13:47:36.446Z,15.72
2019-02-18T13:50:27.622Z,15.20
2019-02-18T13:52:58.413Z,14.94
2019-02-18T13:55:28.832Z,15.87
2019-02-18T13:57:59.165Z,16.14
2019-02-18T14:00:30.902Z,15.21
2019-02-18T14:03:01.327Z,15.29
2019-02-18T14:05:31.577Z,15.04
2019-02-18T14:08:02.189Z,15.09
2019-02-18T14:10:32.524Z,15.32
2019-02-18T14:13:02.774Z,15.88
2019-02-18T14:15:33.082Z,15.89
2019-02-18T14:18:03.688Z,15.64
2019-02-18T14:20:34.910Z,16.08
2019-02-18T14:23:05.689Z,16.04
2019-02-18T14:25:36.211Z,16.37
2019-02-18T14:28:07.312Z,15.94
2019-02-18T14:30:38.435Z,15.65
2019-02-18T14:33:08.696Z,15.43
2019-02-18T14:35:38.938Z,16.34
2019-02-18T14:38:09.350Z,14.95
2019-02-18T14:40:39.971Z,15.48
2019-02-18T14:43:10.222Z,15.14
2019-02-18T14:45:40.491Z,14.69
2019-02-18T14:48:11.442Z,16.65
2019-02-18T14:50:41.791Z,15.35
2019-02-18T14:53:12.721Z,17.03
2019-02-18T14:55:43.184Z,16.81
2019-02-18T14:58:13.774Z,17.36
2019-02-18T15:00:45.688Z,18.14
2019-02-18T15:03:15.949Z,19.08
2019-02-18T15:05:46.277Z,20.76
2019-02-18T15:08:16.721Z,21.34
2019-02-18T15:10:46.971Z,22.46
2019-02-18T15:13:17.318Z,23.53
2019-02-18T15:15:47.934Z,24.25
2019-02-18T15:18:18.246Z,24.95
2019-02-18T15:20:48.480Z,24.41
2019-02-18T15:23:18.820Z,24.57
2019-02-18T15:25:49.156Z,24.20
2019-02-18T15:28:19.461Z,23.63
2019-02-18T15:30:49.785Z,23.27
2019-02-18T15:33:20.207Z,24.00
2019-02-18T15:35:50.560Z,24.75
2019-02-18T15:38:20.837Z,24.66
2019-02-18T15:40:51.072Z,26.77
2019-02-18T15:43:21.815Z,25.95
2019-02-18T15:45:52.165Z,25.58
2019-02-18T15:48:22.417Z,28.09
2019-02-18T15:50:52.771Z,26.15
2019-02-18T15:53:23.116Z,27.55
2019-02-18T15:55:54.198Z,28.09
2019-02-18T15:58:24.706Z,27.60
2019-02-18T16:00:55.051Z,27.35
2019-02-18T16:03:25.370Z,27.49
2019-02-18T16:05:55.618Z,28.07
2019-02-18T16:08:25.961Z,28.11
2019-02-18T16:10:56.303Z,27.65
2019-02-18T16:13:26.568Z,27.97
2019-02-18T16:15:56.817Z,28.63
2019-02-18T16:18:27.191Z,28.09
2019-02-18T16:20:57.532Z,28.28
2019-02-18T16:23:27.793Z,27.44
2019-02-18T16:25:58.042Z,27.38
2019-02-18T16:28:28.388Z,27.88
2019-02-18T16:30:58.623Z,27.85
2019-02-18T16:33:28.967Z,27.26
2019-02-18T16:35:59.334Z,27.24
2019-02-18T16:38:29.654Z,27.92
2019-02-18T16:40:59.899Z,28.31
2019-02-18T16:43:30.625Z,28.27
2019-02-18T16:46:01.041Z,28.15
2019-02-18T16:48:31.679Z,28.69
2019-02-18T16:51:02.129Z,30.91
2019-02-18T16:53:32.634Z,30.02
2019-02-18T16:56:03.126Z,29.71
2019-02-18T16:58:33.410Z,29.56
2019-02-18T17:01:05.030Z,29.83
2019-02-18T17:03:35.856Z,30.04
2019-02-18T17:06:06.198Z,30.03
2019-02-18T17:08:36.451Z,30.16
2019-02-18T17:11:06.723Z,32.35
2019-02-18T17:13:37.092Z,31.94
2019-02-18T17:16:07.435Z,33.95
2019-02-18T17:18:37.855Z,34.15
2019-02-18T17:21:08.102Z,34.71
2019-02-18T17:23:38.451Z,34.14
2019-02-18T17:26:08.806Z,33.64
2019-02-18T17:28:39.062Z,32.60
2019-02-18T17:31:09.322Z,32.01
2019-02-18T17:33:39.653Z,32.46
2019-02-18T17:36:09.993Z,34.31
2019-02-18T17:38:40.318Z,34.13
2019-02-18T17:41:10.585Z,36.17
2019-02-18T17:43:40.917Z,34.50
2019-02-18T17:46:11.602Z,34.60
2019-02-18T17:48:41.866Z,35.77
2019-02-18T17:51:12.217Z,36.28
2019-02-18T17:53:42.626Z,36.39
2019-02-18T17:56:12.882Z,35.92
2019-02-18T17:58:43.348Z,37.44
2019-02-18T18:01:13.679Z,36.50
2019-02-18T18:03:43.914Z,33.54
2019-02-18T18:06:14.165Z,33.78
2019-02-18T18:08:44.511Z,34.33
2019-02-18T18:11:14.871Z,34.19
2019-02-18T18:13:45.701Z,33.53
2019-02-18T18:16:15.946Z,33.19
2019-02-18T18:18:46.279Z,33.20
2019-02-18T18:21:16.625Z,33.14
2019-02-18T18:23:46.877Z,32.98
2019-02-18T18:26:17.131Z,33.08
2019-02-18T18:28:47.477Z,33.58
2019-02-18T18:31:17.729Z,34.01
2019-02-18T18:33:48.089Z,33.64
2019-02-18T18:36:18.524Z,33.69
2019-02-18T18:38:48.778Z,34.89
2019-02-18T18:41:19.402Z,34.51
2019-02-18T18:43:49.750Z,34.03
2019-02-18T18:46:20.207Z,34.13
2019-02-18T18:48:50.464Z,34.25
2019-02-18T18:51:20.712Z,34.22
2019-02-18T18:53:51.361Z,34.35
2019-02-18T18:56:21.835Z,34.19
2019-02-18T18:58:52.074Z,34.21
2019-02-18T19:01:22.416Z,34.98
2019-02-18T19:03:52.771Z,34.60
2019-02-18T19:06:23.112Z,34.44
2019-02-18T19:08:53.364Z,34.58
2019-02-18T19:11:23.699Z,35.11
2019-02-18T19:13:53.980Z,35.16
2019-02-18T19:16:24.225Z,34.84
2019-02-18T19:18:54.553Z,34.87
2019-02-18T19:21:25.181Z,34.90
2019-02-18T19:23:55.436Z,35.01
2019-02-18T19:26:25.741Z,35.39
2019-02-18T19:28:56.138Z,35.23
2019-02-18T19:31:26.475Z,35.45
2019-02-18T19:33:57.104Z,35.92
2019-02-18T19:36:27.376Z,35.48
2019-02-18T19:38:57.724Z,36.05
2019-02-18T19:41:28.067Z,36.48
2019-02-18T19:43:58.585Z,36.34
2019-02-18T19:46:28.819Z,36.47
2019-02-18T19:48:59.172Z,36.76
2019-02-18T19:51:29.406Z,37.18
2019-02-18T19:54:00.166Z,37.39
2019-02-18T19:56:30.503Z,37.27
2019-02-18T19:59:00.746Z,39.93
2019-02-18T20:01:31.104Z,39.31
2019-02-18T20:04:01.443Z,39.08
2019-02-18T20:06:31.887Z,39.53
2019-02-18T20:09:02.144Z,38.03
2019-02-18T20:11:32.504Z,38.11
2019-02-18T20:14:03.326Z,37.88
2019-02-18T20:16:33.665Z,38.02
2019-02-18T20:19:03.916Z,38.34
2019-02-18T20:21:34.171Z,38.25
2019-02-18T20:24:04.511Z,37.51
2019-02-18T20:26:34.842Z,38.70
2019-02-18T20:29:05.082Z,38.65
2019-02-18T20:31:35.453Z,38.61
2019-02-18T20:34:05.713Z,38.33
2019-02-18T20:36:36.000Z,38.22
2019-02-18T20:39:07.933Z,38.03
2019-02-18T20:41:38.361Z,37.72
2019-02-18T20:44:08.681Z,37.85
2019-02-18T20:46:38.941Z,38.18
2019-02-18T20:49:09.295Z,38.38
2019-02-18T20:51:39.646Z,38.10
2019-02-18T20:54:10.271Z,38.59
2019-02-18T20:56:40.672Z,38.50
2019-02-18T20:59:11.025Z,38.62
2019-02-18T21:01:41.378Z,38.65
2019-02-18T21:04:11.614Z,41.51
2019-02-18T21:06:41.875Z,42.27
2019-02-18T21:09:12.220Z,42.00
2019-02-18T21:11:42.467Z,42.77
2019-02-18T21:14:16.059Z,41.26
2019-02-18T21:16:44.876Z,41.17
2019-02-18T21:19:15.112Z,40.50
2019-02-18T21:21:45.367Z,40.32
2019-02-18T21:24:15.737Z,40.22
2019-02-18T21:26:46.087Z,39.71
2019-02-18T21:29:17.293Z,40.29
2019-02-18T21:31:47.651Z,39.77
2019-02-18T21:34:18.346Z,39.94
2019-02-18T21:36:48.940Z,39.90
2019-02-18T21:39:19.193Z,40.76
2019-02-18T21:41:49.439Z,42.13
2019-02-18T21:44:25.219Z,41.20
2019-02-18T21:46:51.831Z,40.54
2019-02-18T21:49:22.128Z,40.18
2019-02-18T21:51:52.531Z,39.99
2019-02-18T21:54:22.785Z,40.07
2019-02-18T21:56:53.090Z,39.94
2019-02-18T21:59:23.713Z,39.91
2019-02-18T22:01:54.421Z,40.17
2019-02-18T22:04:25.364Z,41.37
2019-02-18T22:06:55.603Z,41.59
2019-02-18T22:09:25.932Z,42.59
2019-02-18T22:11:56.349Z,42.90
2019-02-18T22:14:33.210Z,42.26
2019-02-18T22:16:58.667Z,42.29
2019-02-18T22:19:29.002Z,42.03
2019-02-18T22:21:59.329Z,41.80
2019-02-18T22:24:29.561Z,42.32
2019-02-18T22:26:59.798Z,43.16
2019-02-18T22:29:31.098Z,42.92
2019-02-18T22:32:01.435Z,42.65
2019-02-18T22:34:31.701Z,42.58
2019-02-18T22:37:02.091Z,43.13
2019-02-18T22:39:32.469Z,42.95
2019-02-18T22:42:02.809Z,42.71
2019-02-18T22:44:41.581Z,43.50
2019-02-18T22:47:05.302Z,42.97
2019-02-18T22:49:35.641Z,45.62
2019-02-18T22:52:05.967Z,45.78
2019-02-18T22:54:36.294Z,44.13
2019-02-18T22:57:07.013Z,43.97
2019-02-18T22:59:37.497Z,43.59
2019-02-18T23:02:09.329Z,44.18
2019-02-18T23:04:39.739Z,44.54
2019-02-18T23:07:09.995Z,44.83
2019-02-18T23:09:40.320Z,44.83
2019-02-18T23:12:10.939Z,44.86
2019-02-18T23:14:41.269Z,44.89
2019-02-18T23:17:11.603Z,45.20
2019-02-18T23:19:41.856Z,45.12
2019-02-18T23:22:12.105Z,45.38
2019-02-18T23:24:42.434Z,46.14
2019-02-18T23:27:13.038Z,46.06
2019-02-18T23:29:43.281Z,45.99
2019-02-18T23:32:13.529Z,47.63
2019-02-18T23:34:43.970Z,47.05
2019-02-18T23:37:14.296Z,46.95
2019-02-18T23:39:44.535Z,46.89
2019-02-18T23:42:14.766Z,46.90
2019-02-18T23:44:45.117Z,47.07
2019-02-18T23:47:15.451Z,47.12
2019-02-18T23:49:45.697Z,47.27
2019-02-18T23:52:16.040Z,47.16
2019-02-18T23:54:46.270Z,47.62
2019-02-18T23:57:16.718Z,47.83
2019-02-18T23:59:47.438Z,47.69
